KFAY/FAY METAR and TAF weather

Enter ICAO airport designator
Station Type Date Time Source
KFAY METAR 2019/08/21 03:53 UTC NOAA

KFAY 210353Z 24005KT 10SM FEW024 26/21 A3011 RMK AO2 SLP190 T02610211


Station Type Date Time Source
KFAY Decoded METAR 2019/08/21 03:53 UTC NOAA

Station name not available
Aug 20, 2019 - 11:53 PM EDT / 2019.08.21 0353 UTC
Wind: from the WSW (240 degrees) at 6 MPH (5 KT):0
Visibility: 10 mile(s):0
Sky conditions: mostly clear
Temperature: 79.0 F (26.1 C)
Dew Point: 70.0 F (21.1 C)
Relative Humidity: 73%
Pressure (altimeter): 30.11 in. Hg (1019 hPa)
ob: KFAY 210353Z 24005KT 10SM FEW024 26/21 A3011 RMK AO2 SLP190 T02610211
cycle: 4

Station Type Date Time Source
KFAY TAF 2019/08/21 04:40 UTC NOAA

TAF
AMD KFAY 210337Z 2104/2124 18008KT P6SM VCTS SCT025 BKN040CB
TEMPO 2104/2107 25012G20KT 6SM -SHRA BR BKN025 OVC090
FM210800 VRB03KT P6SM BKN060
TEMPO 2111/2113 21006KT P6SM BKN020
FM211300 22007KT P6SM BKN040

Example: see airport list